Time;durP1;ratioP1;P1;durP2;ratioP2;P2;SDS_P1;SDS_P2;PMS_P1;PMS_P2;Temp;Humidity;BMP_temperature;BMP_pressure;BME280_temperature;BME280_humidity;BME280_pressure;Samples;Min_cycle;Max_cycle;Signal;HPM_P1;HPM_P2
2021/04/06 00:00:59;;;;;;;13.02;3.08;;;8.90;63.10;;;;;;5072819;28;20047;-70
2021/04/06 00:03:28;;;;;;;18.65;3.30;;;8.90;62.80;;;;;;5071723;28;20029;-70
2021/04/06 00:06:02;;;;;;;12.48;2.88;;;8.80;62.70;;;;;;5061401;28;20028;-74
2021/04/06 00:08:30;;;;;;;12.20;2.60;;;8.80;62.10;;;;;;5050443;28;20392;-74
2021/04/06 00:10:59;;;;;;;11.70;2.72;;;8.80;61.70;;;;;;5052303;28;20029;-70
2021/04/06 00:13:33;;;;;;;10.52;2.15;;;8.80;61.70;;;;;;5059423;28;20129;-70
2021/04/06 00:16:01;;;;;;;11.90;2.55;;;8.80;61.40;;;;;;5074480;28;20025;-74
2021/04/06 00:18:27;;;;;;;9.60;2.88;;;8.80;61.20;;;;;;5087646;28;20040;-74
2021/04/06 00:20:58;;;;;;;7.18;2.50;;;8.80;62.00;;;;;;5072463;28;20542;-70
2021/04/06 00:23:24;;;;;;;11.23;2.50;;;8.70;61.30;;;;;;5063123;28;20064;-70
2021/04/06 00:25:51;;;;;;;10.00;2.50;;;8.70;61.60;;;;;;5064571;28;20033;-70
2021/04/06 00:28:34;;;;;;;10.63;2.60;;;8.70;61.90;;;;;;5072094;28;20480;-70
2021/04/06 00:31:02;;;;;;;10.15;2.40;;;8.70;61.70;;;;;;5071444;28;20142;-74
2021/04/06 00:33:37;;;;;;;9.40;2.38;;;8.70;61.60;;;;;;5060913;28;20020;-74
2021/04/06 00:36:04;;;;;;;12.23;2.28;;;8.60;61.70;;;;;;5071392;28;20052;-74
2021/04/06 00:38:41;;;;;;;9.30;2.70;;;8.60;61.30;;;;;;5040392;28;20119;-70
2021/04/06 00:41:12;;;;;;;12.02;2.80;;;8.70;61.10;;;;;;5050821;28;20067;-70
2021/04/06 00:43:41;;;;;;;9.38;2.55;;;8.60;60.70;;;;;;5052338;28;20610;-70
2021/04/06 00:46:12;;;;;;;9.75;2.67;;;8.60;61.00;;;;;;5044895;28;20100;-70
2021/04/06 00:48:43;;;;;;;10.65;2.53;;;8.60;61.50;;;;;;5058857;28;20025;-70
2021/04/06 00:51:14;;;;;;;16.92;2.50;;;8.50;60.80;;;;;;5073668;28;20060;-74
2021/04/06 00:53:52;;;;;;;11.98;2.33;;;8.60;61.10;;;;;;5043853;28;20093;-70
2021/04/06 00:56:21;;;;;;;7.65;2.45;;;8.50;60.40;;;;;;5038243;28;20028;-74
2021/04/06 00:58:51;;;;;;;9.40;2.28;;;8.50;61.10;;;;;;5069468;28;20032;-70
2021/04/06 01:01:26;;;;;;;10.18;2.20;;;8.50;60.00;;;;;;5056008;28;20028;-70
2021/04/06 01:03:51;;;;;;;9.55;2.15;;;8.50;59.60;;;;;;5064232;28;20029;-70
2021/04/06 01:06:17;;;;;;;10.15;2.20;;;8.40;59.50;;;;;;5074108;28;20039;-70
2021/04/06 01:08:43;;;;;;;8.52;2.20;;;8.40;59.80;;;;;;5053676;28;20033;-70
2021/04/06 01:11:09;;;;;;;10.43;2.33;;;8.30;59.40;;;;;;5055471;28;20032;-74
2021/04/06 01:13:36;;;;;;;9.23;2.17;;;8.30;59.60;;;;;;5054594;28;20021;-74
2021/04/06 01:16:03;;;;;;;8.80;1.88;;;8.20;59.60;;;;;;5051100;28;20028;-70
2021/04/06 01:18:29;;;;;;;8.48;1.92;;;8.10;60.60;;;;;;5075389;28;20068;-74
2021/04/06 01:20:55;;;;;;;10.27;2.08;;;8.00;60.80;;;;;;5060405;28;20033;-74
2021/04/06 01:23:22;;;;;;;8.50;2.33;;;7.90;60.80;;;;;;5063426;28;20043;-70
2021/04/06 01:25:57;;;;;;;7.95;1.95;;;7.70;61.50;;;;;;5061931;28;20112;-70
2021/04/06 01:28:32;;;;;;;7.38;1.85;;;7.60;62.00;;;;;;5075335;28;20036;-74
2021/04/06 01:31:00;;;;;;;8.15;2.00;;;7.50;62.20;;;;;;5074921;28;20063;-74
2021/04/06 01:33:30;;;;;;;7.97;2.47;;;7.30;63.20;;;;;;5061719;28;20131;-70
2021/04/06 01:35:58;;;;;;;8.27;2.42;;;7.20;63.10;;;;;;5072487;28;20376;-74
2021/04/06 01:38:28;;;;;;;10.75;1.83;;;7.10;63.50;;;;;;5061520;28;20521;-70
2021/04/06 01:40:59;;;;;;;7.93;2.00;;;7.00;63.90;;;;;;5067176;28;20025;-70
2021/04/06 01:43:29;;;;;;;5.82;2.20;;;7.00;64.90;;;;;;5068271;28;20033;-70
2021/04/06 01:46:16;;;;;;;11.32;2.05;;;6.80;65.00;;;;;;5056296;28;20451;-74
2021/04/06 01:48:42;;;;;;;11.68;2.25;;;6.80;65.20;;;;;;5062636;28;20029;-69
2021/04/06 01:51:08;;;;;;;6.00;2.13;;;6.70;65.40;;;;;;5065092;28;20395;-70
2021/04/06 01:53:35;;;;;;;11.00;2.50;;;6.70;65.10;;;;;;5054383;28;20116;-70
2021/04/06 01:56:05;;;;;;;9.52;2.22;;;6.70;65.30;;;;;;5064668;28;20040;-74
2021/04/06 01:58:32;;;;;;;8.43;2.88;;;6.60;65.70;;;;;;5071174;28;20072;-74
2021/04/06 02:01:16;;;;;;;11.52;2.65;;;6.60;66.30;;;;;;5065930;28;20025;-74
2021/04/06 02:03:47;;;;;;;6.05;2.47;;;6.50;66.20;;;;;;5041019;28;20029;-70
2021/04/06 02:06:14;;;;;;;11.10;2.00;;;6.40;66.50;;;;;;5068216;28;20104;-74
2021/04/06 02:08:48;;;;;;;9.18;2.13;;;6.40;66.50;;;;;;5058189;28;20408;-74
2021/04/06 02:11:23;;;;;;;10.93;2.10;;;6.30;66.90;;;;;;5069889;28;20079;-70
2021/04/06 02:13:49;;;;;;;9.27;3.03;;;6.30;67.30;;;;;;5073086;28;20029;-74
2021/04/06 02:16:15;;;;;;;6.35;2.47;;;6.20;67.80;;;;;;5072547;28;20024;-69
2021/04/06 02:18:41;;;;;;;9.73;2.45;;;6.20;67.90;;;;;;5074210;28;20115;-74
2021/04/06 02:21:07;;;;;;;9.98;2.97;;;6.10;68.40;;;;;;5061008;28;20399;-74
2021/04/06 02:23:44;;;;;;;8.80;2.50;;;6.10;68.90;;;;;;5055772;28;20105;-70
2021/04/06 02:26:13;;;;;;;7.07;2.15;;;6.10;69.50;;;;;;5071859;28;20101;-70
2021/04/06 02:28:39;;;;;;;11.63;2.60;;;6.00;69.60;;;;;;5074205;28;20020;-70
2021/04/06 02:31:05;;;;;;;15.85;2.72;;;6.00;70.50;;;;;;5073705;28;20023;-70
2021/04/06 02:33:34;;;;;;;10.75;2.15;;;6.00;71.10;;;;;;5066419;28;20025;-71
2021/04/06 02:36:06;;;;;;;10.68;2.60;;;5.90;70.80;;;;;;5073552;28;20017;-69
2021/04/06 02:38:41;;;;;;;7.67;2.47;;;5.90;71.10;;;;;;5059985;28;20036;-74
2021/04/06 02:41:12;;;;;;;8.63;2.22;;;5.90;70.50;;;;;;5047940;28;20028;-74
2021/04/06 02:43:55;;;;;;;13.80;2.95;;;5.90;70.70;;;;;;5074067;28;20021;-74
2021/04/06 02:46:26;;;;;;;7.38;2.83;;;5.90;71.10;;;;;;5059321;28;20025;-69
2021/04/06 02:48:54;;;;;;;13.82;2.83;;;5.90;70.60;;;;;;5060008;28;20042;-69
2021/04/06 02:51:20;;;;;;;13.00;3.05;;;5.90;71.00;;;;;;5062473;28;20028;-74
2021/04/06 02:53:53;;;;;;;9.00;2.53;;;5.90;71.20;;;;;;5053473;28;20021;-74
2021/04/06 02:56:30;;;;;;;10.95;2.75;;;5.90;71.10;;;;;;5064943;28;20024;-70
2021/04/06 02:59:11;;;;;;;9.20;2.95;;;5.90;70.90;;;;;;5055993;28;20050;-69
2021/04/06 03:01:37;;;;;;;14.20;3.42;;;5.90;70.50;;;;;;5073705;28;20071;-74
2021/04/06 03:04:03;;;;;;;13.27;3.50;;;6.00;70.50;;;;;;5072880;28;20060;-74
2021/04/06 03:06:33;;;;;;;12.57;2.78;;;6.00;70.20;;;;;;5039438;28;20086;-74
2021/04/06 03:08:59;;;;;;;9.57;2.75;;;6.00;70.10;;;;;;5052614;28;20025;-74
2021/04/06 03:11:27;;;;;;;18.63;3.50;;;6.00;70.30;;;;;;5056241;28;20108;-70
2021/04/06 03:13:53;;;;;;;15.52;3.35;;;6.00;70.50;;;;;;5073481;28;20019;-70
2021/04/06 03:16:18;;;;;;;12.77;3.10;;;6.00;69.90;;;;;;5071214;28;20025;-70
2021/04/06 03:18:44;;;;;;;15.57;3.17;;;6.10;69.80;;;;;;5073158;28;20575;-69
2021/04/06 03:21:11;;;;;;;9.93;2.78;;;6.10;70.20;;;;;;5073204;28;20032;-69
2021/04/06 03:23:38;;;;;;;15.45;3.13;;;6.00;69.80;;;;;;5072669;28;20021;-70
2021/04/06 03:26:06;;;;;;;8.88;3.20;;;6.00;70.20;;;;;;5070029;28;20483;-74
2021/04/06 03:28:34;;;;;;;9.27;3.15;;;5.80;70.10;;;;;;5073163;28;20058;-69
2021/04/06 03:31:12;;;;;;;12.57;3.20;;;5.80;70.60;;;;;;5072451;28;20111;-69
2021/04/06 03:33:47;;;;;;;13.63;3.17;;;5.60;70.90;;;;;;5060549;28;20021;-74
2021/04/06 03:36:24;;;;;;;12.50;3.15;;;5.50;72.00;;;;;;5048213;28;20096;-69
2021/04/06 03:38:54;;;;;;;12.63;2.63;;;5.50;72.30;;;;;;5056201;28;20411;-74
2021/04/06 03:41:22;;;;;;;14.68;3.83;;;5.40;72.50;;;;;;5049936;28;20033;-69
2021/04/06 03:43:48;;;;;;;11.50;2.92;;;5.30;73.00;;;;;;5068063;28;20020;-74
2021/04/06 03:46:22;;;;;;;17.50;3.67;;;5.20;73.60;;;;;;5062396;28;20372;-74
2021/04/06 03:48:49;;;;;;;12.07;3.40;;;5.10;74.00;;;;;;5075021;28;20444;-74
2021/04/06 03:51:28;;;;;;;12.88;3.45;;;5.00;75.30;;;;;;5063289;28;20020;-70
2021/04/06 03:53:55;;;;;;;9.60;2.78;;;4.90;76.20;;;;;;5057404;28;20028;-69
2021/04/06 03:56:31;;;;;;;13.75;3.28;;;4.70;76.40;;;;;;5066065;28;20021;-70
2021/04/06 03:59:00;;;;;;;17.30;3.35;;;4.60;76.80;;;;;;5064688;28;20025;-69
2021/04/06 04:01:26;;;;;;;10.27;2.67;;;4.50;77.10;;;;;;5066112;28;20020;-74
2021/04/06 04:03:56;;;;;;;13.45;3.15;;;4.40;77.40;;;;;;5061170;28;20033;-74
2021/04/06 04:06:27;;;;;;;10.32;2.55;;;4.30;77.70;;;;;;5041052;28;20124;-73
2021/04/06 04:08:54;;;;;;;8.77;2.83;;;4.30;78.00;;;;;;5036480;28;20075;-69
2021/04/06 04:11:22;;;;;;;10.65;2.65;;;4.20;78.20;;;;;;5051121;28;20032;-74
2021/04/06 04:13:47;;;;;;;14.30;3.65;;;4.20;78.10;;;;;;5052510;28;20024;-74
2021/04/06 04:16:14;;;;;;;13.20;3.25;;;4.20;78.20;;;;;;5066894;28;20391;-69
2021/04/06 04:18:40;;;;;;;12.70;3.08;;;4.10;78.00;;;;;;5062214;28;20127;-74
2021/04/06 04:21:10;;;;;;;9.73;2.53;;;4.10;77.60;;;;;;5055721;28;20111;-69
2021/04/06 04:23:36;;;;;;;14.32;3.03;;;4.10;77.50;;;;;;5052958;28;20036;-73
2021/04/06 04:26:02;;;;;;;8.68;2.67;;;4.10;77.50;;;;;;5036345;28;20021;-74
2021/04/06 04:28:28;;;;;;;7.00;2.65;;;4.10;77.60;;;;;;5044767;28;20059;-70
2021/04/06 04:30:54;;;;;;;10.93;2.58;;;4.00;77.50;;;;;;5071544;28;20044;-74
2021/04/06 04:33:20;;;;;;;9.52;2.95;;;4.00;78.00;;;;;;5072170;28;20027;-70
2021/04/06 04:35:46;;;;;;;7.68;2.60;;;4.00;78.10;;;;;;5054936;28;20047;-69
2021/04/06 04:38:11;;;;;;;9.02;2.58;;;4.00;78.00;;;;;;5060308;28;20021;-73
2021/04/06 04:40:42;;;;;;;12.40;2.90;;;4.00;78.20;;;;;;5065747;28;20104;-74
2021/04/06 04:43:12;;;;;;;9.52;2.47;;;4.00;78.20;;;;;;5060540;28;20021;-69
2021/04/06 04:45:37;;;;;;;10.63;2.80;;;4.00;78.20;;;;;;5055926;28;20522;-69
2021/04/06 04:48:04;;;;;;;5.63;2.30;;;4.00;78.10;;;;;;5058927;28;20056;-69
2021/04/06 04:50:31;;;;;;;5.90;2.33;;;4.00;78.10;;;;;;5052958;28;20503;-74
2021/04/06 04:52:57;;;;;;;12.90;2.75;;;4.00;78.20;;;;;;5051316;28;20025;-74
2021/04/06 04:55:23;;;;;;;7.15;2.78;;;4.00;78.00;;;;;;5061142;28;20028;-69
2021/04/06 04:57:49;;;;;;;10.98;3.00;;;4.00;77.90;;;;;;5060398;28;20036;-69
2021/04/06 05:00:16;;;;;;;8.05;3.10;;;4.00;78.10;;;;;;5069481;28;20021;-70
2021/04/06 05:02:43;;;;;;;7.53;3.03;;;4.00;78.20;;;;;;5072008;28;20028;-70
2021/04/06 05:05:11;;;;;;;12.43;2.80;;;4.00;78.10;;;;;;5063334;28;20025;-74
2021/04/06 05:07:37;;;;;;;7.57;2.53;;;4.00;78.50;;;;;;5048912;28;20128;-74
2021/04/06 05:10:08;;;;;;;12.55;2.83;;;4.00;78.10;;;;;;5043861;28;20037;-69
2021/04/06 05:12:35;;;;;;;14.02;2.78;;;4.00;78.10;;;;;;5064631;28;20016;-69
2021/04/06 05:15:01;;;;;;;10.27;3.20;;;4.10;78.30;;;;;;5070274;28;20049;-69
2021/04/06 05:17:27;;;;;;;10.90;3.13;;;4.00;78.00;;;;;;5069072;28;20025;-74
2021/04/06 05:19:53;;;;;;;13.25;2.70;;;4.00;78.00;;;;;;5058080;28;20487;-74
2021/04/06 05:22:18;;;;;;;14.98;3.17;;;4.00;78.50;;;;;;5040503;28;20050;-69
2021/04/06 05:24:44;;;;;;;9.93;2.92;;;4.00;78.80;;;;;;5049501;28;20544;-74
2021/04/06 05:27:10;;;;;;;14.10;3.35;;;4.00;78.80;;;;;;5064196;28;20027;-69
2021/04/06 05:29:35;;;;;;;13.73;3.33;;;4.00;79.00;;;;;;5065587;28;20021;-69
2021/04/06 05:32:01;;;;;;;8.40;2.90;;;3.90;79.20;;;;;;5064145;28;20043;-69
2021/04/06 05:34:27;;;;;;;10.23;3.03;;;3.90;79.30;;;;;;5060948;28;20092;-74
2021/04/06 05:36:52;;;;;;;13.20;3.20;;;4.00;79.60;;;;;;5045718;28;20258;-73
2021/04/06 05:39:18;;;;;;;9.98;2.58;;;4.00;79.20;;;;;;5048567;28;20059;-73
2021/04/06 05:41:45;;;;;;;12.48;3.80;;;4.00;79.00;;;;;;5057644;28;20108;-69
2021/04/06 05:44:11;;;;;;;13.63;3.13;;;4.00;79.10;;;;;;5058709;28;20059;-69
2021/04/06 05:46:40;;;;;;;8.77;2.72;;;4.00;79.10;;;;;;5053280;28;20021;-74
2021/04/06 05:49:09;;;;;;;10.15;2.80;;;4.10;79.30;;;;;;5057677;28;20028;-74
2021/04/06 05:51:37;;;;;;;15.85;3.13;;;4.10;79.30;;;;;;5053856;28;20513;-70
2021/04/06 05:54:03;;;;;;;14.68;3.17;;;4.10;79.40;;;;;;5054423;28;20017;-78
2021/04/06 05:56:29;;;;;;;9.93;3.03;;;4.10;78.70;;;;;;5052831;28;20017;-74
2021/04/06 05:58:58;;;;;;;10.75;3.05;;;4.10;78.40;;;;;;5066641;28;20498;-70
2021/04/06 06:01:28;;;;;;;6.22;2.70;;;4.20;77.50;;;;;;5053351;28;20021;-70
2021/04/06 06:03:54;;;;;;;12.27;3.47;;;4.20;76.70;;;;;;5061981;28;20043;-70
2021/04/06 06:06:22;;;;;;;10.77;2.70;;;4.20;75.50;;;;;;5052285;28;20036;-70
2021/04/06 06:08:54;;;;;;;7.35;2.97;;;4.20;75.10;;;;;;5047035;28;20550;-75
2021/04/06 06:11:20;;;;;;;18.52;3.22;;;4.20;74.60;;;;;;5051085;28;20029;-70
2021/04/06 06:13:46;;;;;;;13.45;2.92;;;4.30;74.30;;;;;;5051191;28;20484;-70
2021/04/06 06:16:21;;;;;;;12.52;3.25;;;4.40;73.40;;;;;;5055708;28;20028;-75
2021/04/06 06:19:05;;;;;;;11.00;3.22;;;4.40;72.40;;;;;;5054270;28;20045;-71
2021/04/06 06:21:45;;;;;;;13.88;3.35;;;4.50;71.80;;;;;;5054750;28;20040;-75
2021/04/06 06:24:39;;;;;;;18.33;3.83;;;4.50;71.20;;;;;;5045716;28;20028;-75
2021/04/06 06:27:22;;;;;;;10.90;2.85;;;4.50;71.50;;;;;;5054933;28;20083;-69
2021/04/06 06:29:48;;;;;;;;;;;4.50;71.10;;;;;;5050646;28;20025;-70
2021/04/06 06:32:22;;;;;;;9.73;3.22;;;4.50;70.90;;;;;;5053276;28;20393;-75
2021/04/06 06:34:49;;;;;;;9.48;3.30;;;4.50;71.50;;;;;;5053379;28;20028;-70
2021/04/06 06:37:26;;;;;;;10.68;3.08;;;4.50;70.70;;;;;;5049278;28;20021;-70
2021/04/06 06:39:54;;;;;;;10.02;3.15;;;4.50;71.70;;;;;;5050956;28;20021;-70
2021/04/06 06:42:22;;;;;;;9.25;3.40;;;4.50;71.40;;;;;;5050427;28;20025;-75
2021/04/06 06:44:48;;;;;;;14.85;3.30;;;4.50;71.90;;;;;;5050635;28;20438;-69
2021/04/06 06:47:22;;;;;;;11.05;3.70;;;4.60;72.30;;;;;;5049397;28;20029;-71
2021/04/06 06:49:52;;;;;;;13.70;3.65;;;4.60;71.60;;;;;;5052953;28;20029;-69
2021/04/06 06:52:27;;;;;;;10.38;3.25;;;4.60;70.90;;;;;;5056869;28;20017;-70
2021/04/06 06:55:00;;;;;;;12.05;3.60;;;4.70;70.60;;;;;;5056537;28;20387;-69
2021/04/06 06:57:35;;;;;;;12.98;3.75;;;4.70;70.80;;;;;;5041289;28;20352;-69
2021/04/06 07:00:06;;;;;;;10.13;3.25;;;4.70;70.80;;;;;;5052851;28;20033;-70
2021/04/06 07:02:32;;;;;;;11.55;4.25;;;4.80;70.50;;;;;;5030523;28;20419;-70
2021/04/06 07:05:23;;;;;;;14.30;3.92;;;4.80;70.00;;;;;;5050662;28;20025;-72
2021/04/06 07:07:52;;;;;;;9.07;3.10;;;4.80;69.80;;;;;;5046762;28;20041;-71
2021/04/06 07:10:29;;;;;;;12.30;3.45;;;4.90;70.20;;;;;;5058766;28;20029;-71
2021/04/06 07:13:08;;;;;;;11.27;3.42;;;4.90;69.50;;;;;;5059260;28;20400;-78
2021/04/06 07:15:40;;;;;;;12.05;3.88;;;5.00;68.80;;;;;;5048380;28;20017;-71
2021/04/06 07:18:09;;;;;;;9.45;3.50;;;5.00;68.50;;;;;;5053800;28;20101;-71
2021/04/06 07:20:39;;;;;;;10.15;3.72;;;5.10;67.90;;;;;;5051792;28;20032;-78
2021/04/06 07:23:09;;;;;;;13.00;3.72;;;5.10;67.90;;;;;;5050984;28;20052;-71
2021/04/06 07:25:35;;;;;;;9.60;3.80;;;5.20;67.40;;;;;;5057425;28;20543;-71
2021/04/06 07:28:02;;;;;;;12.15;3.17;;;5.20;66.20;;;;;;5061343;28;20033;-78
2021/04/06 07:30:27;;;;;;;9.05;3.60;;;5.20;66.40;;;;;;5050586;28;20036;-77
2021/04/06 07:32:55;;;;;;;8.43;3.47;;;5.40;67.00;;;;;;5047639;28;20119;-71
2021/04/06 07:35:20;;;;;;;11.38;3.30;;;5.50;65.30;;;;;;5034745;28;20079;-72
2021/04/06 07:37:47;;;;;;;11.10;3.10;;;5.70;67.20;;;;;;5048399;28;20384;-77
2021/04/06 07:40:16;;;;;;;11.63;3.25;;;5.80;64.60;;;;;;5053612;28;20041;-71
2021/04/06 07:42:44;;;;;;;13.07;3.47;;;5.90;64.30;;;;;;5045050;28;20089;-78
2021/04/06 07:45:21;;;;;;;21.05;3.17;;;6.00;62.20;;;;;;5048012;28;20032;-71
2021/04/06 07:47:47;;;;;;;9.27;3.30;;;6.20;61.50;;;;;;5030972;28;20036;-71
2021/04/06 07:50:13;;;;;;;11.02;2.90;;;6.30;61.20;;;;;;5051719;28;20063;-72
2021/04/06 07:52:39;;;;;;;10.93;3.30;;;6.50;60.50;;;;;;5050886;28;20021;-79
2021/04/06 07:55:06;;;;;;;16.38;4.28;;;8.00;57.80;;;;;;5057681;28;20511;-79
2021/04/06 07:57:43;;;;;;;7.07;3.38;;;11.10;49.00;;;;;;5059475;28;20373;-72
2021/04/06 08:00:10;;;;;;;8.50;3.20;;;13.30;40.70;;;;;;5055248;28;20492;-71
2021/04/06 08:02:43;;;;;;;9.25;3.35;;;13.80;37.00;;;;;;5039581;28;20024;-72
2021/04/06 08:05:16;;;;;;;10.98;3.20;;;14.30;36.90;;;;;;5049100;28;20480;-72
2021/04/06 08:07:41;;;;;;;9.18;3.15;;;15.30;35.60;;;;;;5047622;28;20111;-80
2021/04/06 08:10:10;;;;;;;9.18;2.92;;;16.00;33.00;;;;;;5056625;28;20127;-72
2021/04/06 08:12:37;;;;;;;7.22;2.58;;;16.40;31.90;;;;;;5057752;28;20096;-73
2021/04/06 08:15:30;;;;;;;7.50;2.85;;;17.10;30.70;;;;;;5052584;28;20399;-73
2021/04/06 08:17:59;;;;;;;8.13;3.08;;;17.60;29.60;;;;;;5048704;28;20083;-73
2021/04/06 08:20:35;;;;;;;8.20;3.10;;;17.40;28.70;;;;;;5051553;28;20037;-81
2021/04/06 08:23:05;;;;;;;7.90;2.97;;;17.70;28.40;;;;;;5059361;28;20067;-73
2021/04/06 08:25:30;;;;;;;8.88;3.22;;;17.70;28.60;;;;;;5053482;28;20021;-73
2021/04/06 08:28:00;;;;;;;7.07;2.85;;;17.70;27.90;;;;;;5061905;28;20383;-73
2021/04/06 08:30:39;;;;;;;9.90;3.25;;;18.00;28.10;;;;;;5051722;28;20029;-73
2021/04/06 08:33:07;;;;;;;8.13;2.90;;;19.00;27.70;;;;;;5057037;28;20029;-81
2021/04/06 08:38:23;;;;;;;7.22;3.10;;;18.90;27.20;;;;;;5045466;28;20038;-74
2021/04/06 08:40:54;;;;;;;7.20;2.67;;;19.20;27.30;;;;;;5048156;28;20043;-74
2021/04/06 08:43:35;;;;;;;9.68;3.70;;;19.40;25.60;;;;;;5046076;28;20025;-74
2021/04/06 08:46:03;;;;;;;7.25;2.90;;;18.70;26.00;;;;;;5046974;28;20017;-80
2021/04/06 08:48:47;;;;;;;7.78;2.92;;;17.50;27.50;;;;;;5052465;28;20050;-80
2021/04/06 08:51:43;;;;;;;14.68;3.40;;;17.50;28.20;;;;;;5055758;28;20055;-80
2021/04/06 08:54:23;;;;;;;11.48;3.75;;;18.50;26.90;;;;;;5048756;28;20052;-73
2021/04/06 08:56:54;;;;;;;7.15;3.55;;;18.80;26.40;;;;;;5047769;28;20029;-80
2021/04/06 08:59:35;;;;;;;9.52;3.85;;;18.80;26.30;;;;;;5053493;28;20017;-79
2021/04/06 09:02:02;;;;;;;8.50;4.00;;;19.60;26.30;;;;;;5063459;28;20463;-80
2021/04/06 09:04:29;;;;;;;8.85;4.47;;;19.50;26.60;;;;;;5048415;28;20537;-74
2021/04/06 09:06:55;;;;;;;8.48;5.10;;;19.50;26.10;;;;;;5049821;28;20486;-74
2021/04/06 09:09:28;;;;;;;8.27;4.22;;;19.50;27.30;;;;;;5049417;28;20029;-78
2021/04/06 09:11:56;;;;;;;11.60;3.95;;;19.40;26.30;;;;;;5068675;28;20017;-78
2021/04/06 09:14:23;;;;;;;6.32;3.28;;;20.30;25.60;;;;;;5054849;28;20170;-79
2021/04/06 09:16:54;;;;;;;12.27;3.60;;;20.60;24.10;;;;;;5053506;28;20043;-79
2021/04/06 09:19:22;;;;;;;6.97;3.38;;;20.10;25.20;;;;;;5075132;28;20545;-74
2021/04/06 09:21:59;;;;;;;7.85;3.17;;;20.30;23.70;;;;;;5074953;28;20046;-74
2021/04/06 09:24:27;;;;;;;6.15;3.17;;;20.90;23.90;;;;;;5077119;28;20118;-74
2021/04/06 09:26:54;;;;;;;7.57;3.03;;;20.50;23.00;;;;;;5073762;28;20035;-79
2021/04/06 09:29:42;;;;;;;11.02;3.03;;;20.80;22.70;;;;;;5078540;28;20479;-74
2021/04/06 09:32:11;;;;;;;10.55;3.20;;;22.60;21.10;;;;;;5072838;28;20040;-73
2021/04/06 09:34:39;;;;;;;5.60;2.70;;;22.70;20.10;;;;;;5086025;28;20077;-74
2021/04/06 09:37:14;;;;;;;7.28;2.40;;;21.40;21.20;;;;;;5074229;28;20021;-79
2021/04/06 09:39:54;;;;;;;5.57;2.50;;;20.70;20.90;;;;;;5078646;28;20040;-74
2021/04/06 09:42:21;;;;;;;6.07;2.42;;;19.80;21.90;;;;;;5085534;28;20103;-79
2021/04/06 09:44:48;;;;;;;11.32;2.83;;;19.90;21.10;;;;;;5074302;28;20590;-74
2021/04/06 09:47:23;;;;;;;5.13;2.40;;;20.90;22.40;;;;;;5079046;28;20028;-79
2021/04/06 09:49:51;;;;;;;9.75;2.78;;;20.30;21.70;;;;;;5071823;28;20498;-80
2021/04/06 09:52:21;;;;;;;10.13;2.60;;;20.80;21.70;;;;;;5084270;28;20081;-74
2021/04/06 09:54:59;;;;;;;8.90;2.67;;;20.30;22.20;;;;;;5054176;28;20143;-79
2021/04/06 09:57:58;;;;;;;6.10;2.50;;;20.80;21.80;;;;;;5072862;28;20379;-79
2021/04/06 10:00:32;;;;;;;9.40;2.67;;;20.10;21.10;;;;;;5066895;28;20503;-74
2021/04/06 10:03:14;;;;;;;7.75;2.65;;;19.60;21.60;;;;;;5072784;28;20025;-74
2021/04/06 10:05:43;;;;;;;6.78;2.28;;;20.70;22.80;;;;;;5082235;28;20036;-79
2021/04/06 10:08:09;;;;;;;8.88;2.20;;;21.30;21.60;;;;;;5079645;28;20066;-73
2021/04/06 10:10:35;;;;;;;13.65;2.60;;;20.10;20.60;;;;;;5075569;28;20046;-74
2021/04/06 10:13:03;;;;;;;4.80;2.13;;;20.10;20.40;;;;;;5082166;28;20029;-79
2021/04/06 10:15:31;;;;;;;4.63;1.85;;;19.60;21.00;;;;;;5072258;28;20027;-74
2021/04/06 10:18:07;;;;;;;5.53;1.63;;;18.70;21.90;;;;;;5080030;28;20040;-79
2021/04/06 10:20:41;;;;;;;3.22;1.50;;;18.00;22.00;;;;;;5077776;28;20549;-74
2021/04/06 10:23:07;;;;;;;6.88;1.90;;;17.20;24.00;;;;;;5074919;28;20024;-80
2021/04/06 10:25:38;;;;;;;6.97;1.60;;;16.30;23.60;;;;;;5079341;28;20107;-78
2021/04/06 10:28:07;;;;;;;4.70;1.75;;;15.40;24.00;;;;;;5072174;28;20028;-79
2021/04/06 10:30:57;;;;;;;6.28;1.70;;;15.20;24.20;;;;;;5074339;28;20074;-73
2021/04/06 10:33:31;;;;;;;5.65;1.45;;;14.80;24.70;;;;;;5077793;28;20440;-73
2021/04/06 10:36:00;;;;;;;8.32;1.60;;;15.00;25.50;;;;;;5081615;28;20398;-74
2021/04/06 10:38:35;;;;;;;7.65;1.38;;;15.40;25.10;;;;;;5049271;28;20403;-74
2021/04/06 10:41:10;;;;;;;4.22;1.25;;;15.90;24.60;;;;;;5083521;28;20036;-82
2021/04/06 10:43:38;;;;;;;6.47;1.55;;;14.80;24.90;;;;;;5076138;28;20024;-79
2021/04/06 10:46:05;;;;;;;7.32;1.55;;;14.40;26.40;;;;;;5067960;28;20094;-81
2021/04/06 10:48:35;;;;;;;7.07;1.70;;;14.60;26.70;;;;;;5069304;28;21169;-73
2021/04/06 10:51:09;;;;;;;8.63;2.13;;;14.40;25.20;;;;;;5070610;28;20052;-73
2021/04/06 10:53:50;;;;;;;4.95;1.95;;;14.30;26.10;;;;;;5070716;28;20364;-79
2021/04/06 10:56:28;;;;;;;4.68;1.65;;;14.90;28.00;;;;;;5070240;28;20063;-81
2021/04/06 10:59:00;;;;;;;7.22;1.88;;;14.90;26.30;;;;;;5066517;28;20070;-73
2021/04/06 11:01:41;;;;;;;6.13;2.03;;;14.50;25.60;;;;;;5071853;28;20034;-73
2021/04/06 11:04:13;;;;;;;4.68;1.67;;;14.70;25.00;;;;;;5068822;28;20028;-73
2021/04/06 11:06:41;;;;;;;7.53;1.60;;;14.20;26.70;;;;;;5081378;28;20111;-73
2021/04/06 11:09:16;;;;;;;6.82;1.70;;;14.50;27.70;;;;;;5074949;28;20028;-77
2021/04/06 11:11:43;;;;;;;5.43;1.85;;;13.90;25.70;;;;;;5075645;28;20495;-73
2021/04/06 11:14:13;;;;;;;4.88;1.50;;;14.00;27.40;;;;;;5066767;28;20028;-74
2021/04/06 11:16:40;;;;;;;3.78;1.65;;;14.10;27.50;;;;;;5069107;28;20487;-73
2021/04/06 11:19:15;;;;;;;4.68;1.67;;;14.30;26.70;;;;;;5053362;28;20075;-74
2021/04/06 11:21:50;;;;;;;5.10;1.52;;;14.20;27.20;;;;;;5045507;28;20067;-76
2021/04/06 11:24:18;;;;;;;8.65;1.50;;;14.10;27.60;;;;;;5053919;28;20028;-79
2021/04/06 11:26:43;;;;;;;13.10;2.13;;;14.30;28.20;;;;;;5049314;28;20048;-74
2021/04/06 11:29:12;;;;;;;8.73;1.63;;;14.90;29.20;;;;;;5057141;28;20028;-74
2021/04/06 11:31:39;;;;;;;10.70;2.25;;;15.20;26.30;;;;;;5048385;28;20090;-73
2021/04/06 11:34:06;;;;;;;5.47;1.77;;;15.70;27.10;;;;;;5048904;28;20448;-78
2021/04/06 11:36:33;;;;;;;4.28;1.63;;;15.00;26.30;;;;;;5053164;28;20531;-78
2021/04/06 11:38:59;;;;;;;9.75;1.80;;;14.40;27.30;;;;;;5027711;28;20073;-73
2021/04/06 11:41:25;;;;;;;5.63;1.50;;;14.50;27.30;;;;;;5031057;28;20384;-73
2021/04/06 11:43:51;;;;;;;5.15;1.73;;;14.80;29.30;;;;;;5050343;28;20028;-74
2021/04/06 11:46:17;;;;;;;5.15;1.42;;;14.00;26.50;;;;;;5053208;28;20025;-77
2021/04/06 11:48:44;;;;;;;3.30;1.65;;;13.90;27.80;;;;;;5054318;28;20073;-78
2021/04/06 11:51:12;;;;;;;10.60;2.00;;;14.20;29.90;;;;;;5049272;28;20031;-74
2021/04/06 11:53:37;;;;;;;7.95;1.52;;;14.10;27.70;;;;;;5056012;28;20543;-74
2021/04/06 11:56:03;;;;;;;6.78;1.80;;;14.20;28.90;;;;;;5048395;28;20063;-74
2021/04/06 11:58:29;;;;;;;6.80;1.75;;;14.80;28.90;;;;;;5058451;28;20405;-73
2021/04/06 12:00:54;;;;;;;6.38;1.63;;;14.30;27.20;;;;;;5047827;28;20082;-78
2021/04/06 12:03:20;;;;;;;8.15;1.90;;;14.10;29.40;;;;;;5052904;28;20556;-74
2021/04/06 12:05:46;;;;;;;5.97;1.90;;;14.00;28.70;;;;;;5053419;28;20029;-74
2021/04/06 12:08:11;;;;;;;4.78;1.90;;;13.60;27.90;;;;;;5051528;28;20056;-74
2021/04/06 12:10:37;;;;;;;8.40;1.63;;;13.80;31.20;;;;;;5048735;28;20032;-78
2021/04/06 12:13:03;;;;;;;4.43;1.77;;;13.80;30.40;;;;;;5035230;28;20479;-79
2021/04/06 12:15:29;;;;;;;3.25;1.67;;;14.00;27.60;;;;;;5034838;28;20175;-78
2021/04/06 12:17:55;;;;;;;5.47;1.58;;;13.80;28.00;;;;;;5057262;28;20566;-80
2021/04/06 12:20:22;;;;;;;7.88;2.20;;;13.20;28.80;;;;;;5076041;28;20033;-78
2021/04/06 12:22:48;;;;;;;7.88;2.38;;;13.20;29.60;;;;;;5072184;28;20078;-79
2021/04/06 12:25:14;;;;;;;11.68;2.35;;;13.50;31.40;;;;;;5057238;28;20514;-79
2021/04/06 12:27:39;;;;;;;5.72;2.00;;;13.70;31.60;;;;;;5076231;28;20027;-80
2021/04/06 12:30:06;;;;;;;6.63;1.60;;;13.40;30.00;;;;;;5055238;28;20028;-79
2021/04/06 12:32:32;;;;;;;20.27;2.53;;;13.10;30.50;;;;;;5077077;28;20529;-79
2021/04/06 12:34:58;;;;;;;10.50;2.08;;;13.20;28.40;;;;;;5068302;28;20024;-79
2021/04/06 12:37:24;;;;;;;4.78;1.70;;;13.30;30.00;;;;;;5068257;28;20032;-81
2021/04/06 12:39:50;;;;;;;4.28;1.70;;;13.00;30.00;;;;;;5074852;28;20032;-79
2021/04/06 12:42:16;;;;;;;7.93;2.53;;;13.20;30.60;;;;;;5054893;28;20482;-81
2021/04/06 12:44:42;;;;;;;15.68;2.50;;;13.00;30.10;;;;;;5074800;28;20394;-81
2021/04/06 12:47:08;;;;;;;9.98;2.25;;;13.40;32.00;;;;;;5057379;28;20445;-79
2021/04/06 12:49:34;;;;;;;38.38;4.53;;;13.90;30.80;;;;;;5056796;28;20032;-80
2021/04/06 12:51:59;;;;;;;22.25;3.28;;;14.10;29.50;;;;;;5050863;28;20099;-75
2021/04/06 12:54:25;;;;;;;18.17;2.92;;;13.50;29.80;;;;;;5078490;28;20025;-79
2021/04/06 12:56:51;;;;;;;48.15;4.68;;;13.00;30.60;;;;;;5073277;28;20024;-77
2021/04/06 12:59:17;;;;;;;23.95;3.22;;;13.00;32.50;;;;;;5058116;28;20028;-79
2021/04/06 13:01:43;;;;;;;11.10;2.40;;;13.60;31.50;;;;;;5074476;28;20104;-79
2021/04/06 13:04:09;;;;;;;7.95;2.05;;;13.80;28.20;;;;;;5064017;28;20144;-77